sensor_id;sensor_type;location;lat;lon;timestamp;temperature;humidity
4520;DHT22;2272;49.226;8.108;2023-04-08T00:00:34;7.80;99.90
4520;DHT22;2272;49.226;8.108;2023-04-08T00:03:01;7.80;99.90
4520;DHT22;2272;49.226;8.108;2023-04-08T00:05:28;7.80;99.90
4520;DHT22;2272;49.226;8.108;2023-04-08T00:07:56;7.80;99.90
4520;DHT22;2272;49.226;8.108;2023-04-08T00:10:23;7.80;99.90
4520;DHT22;2272;49.226;8.108;2023-04-08T00:12:50;7.80;99.90
4520;DHT22;2272;49.226;8.108;2023-04-08T00:15:17;7.80;99.90
4520;DHT22;2272;49.226;8.108;2023-04-08T00:17:44;7.80;99.90
4520;DHT22;2272;49.226;8.108;2023-04-08T00:20:10;7.90;99.90
4520;DHT22;2272;49.226;8.108;2023-04-08T00:22:37;7.90;99.90
4520;DHT22;2272;49.226;8.108;2023-04-08T00:25:06;7.90;99.90
4520;DHT22;2272;49.226;8.108;2023-04-08T00:27:34;7.90;99.90
4520;DHT22;2272;49.226;8.108;2023-04-08T00:30:00;7.90;99.90
4520;DHT22;2272;49.226;8.108;2023-04-08T00:32:28;7.90;99.90
4520;DHT22;2272;49.226;8.108;2023-04-08T00:34:54;8.00;99.90
4520;DHT22;2272;49.226;8.108;2023-04-08T00:37:21;8.00;99.90
4520;DHT22;2272;49.226;8.108;2023-04-08T00:39:51;8.10;99.90
4520;DHT22;2272;49.226;8.108;2023-04-08T00:42:20;8.10;99.90
4520;DHT22;2272;49.226;8.108;2023-04-08T00:44:46;8.10;99.90
4520;DHT22;2272;49.226;8.108;2023-04-08T00:47:13;8.10;99.90
4520;DHT22;2272;49.226;8.108;2023-04-08T00:49:40;8.10;99.90
4520;DHT22;2272;49.226;8.108;2023-04-08T00:52:07;8.10;99.90
4520;DHT22;2272;49.226;8.108;2023-04-08T00:54:35;8.10;99.90
4520;DHT22;2272;49.226;8.108;2023-04-08T00:57:02;8.10;99.90
4520;DHT22;2272;49.226;8.108;2023-04-08T00:59:31;8.10;99.90
4520;DHT22;2272;49.226;8.108;2023-04-08T01:02:05;8.10;99.90
4520;DHT22;2272;49.226;8.108;2023-04-08T01:04:38;8.10;99.90
4520;DHT22;2272;49.226;8.108;2023-04-08T01:07:13;8.10;99.90
4520;DHT22;2272;49.226;8.108;2023-04-08T01:09:45;8.10;99.90
4520;DHT22;2272;49.226;8.108;2023-04-08T01:12:20;8.10;99.90
4520;DHT22;2272;49.226;8.108;2023-04-08T01:14:51;8.00;99.90
4520;DHT22;2272;49.226;8.108;2023-04-08T01:17:21;8.00;99.90
4520;DHT22;2272;49.226;8.108;2023-04-08T01:19:48;8.00;99.90
4520;DHT22;2272;49.226;8.108;2023-04-08T01:22:24;8.00;99.90
4520;DHT22;2272;49.226;8.108;2023-04-08T01:24:58;8.00;99.90
4520;DHT22;2272;49.226;8.108;2023-04-08T01:27:30;7.90;99.90
4520;DHT22;2272;49.226;8.108;2023-04-08T01:29:57;7.90;99.90
4520;DHT22;2272;49.226;8.108;2023-04-08T01:32:26;7.90;99.90
4520;DHT22;2272;49.226;8.108;2023-04-08T01:34:54;7.90;99.90
4520;DHT22;2272;49.226;8.108;2023-04-08T01:37:22;7.90;99.90
4520;DHT22;2272;49.226;8.108;2023-04-08T01:39:51;8.00;99.90
4520;DHT22;2272;49.226;8.108;2023-04-08T01:42:19;7.90;99.90
4520;DHT22;2272;49.226;8.108;2023-04-08T01:44:49;7.90;99.90
4520;DHT22;2272;49.226;8.108;2023-04-08T01:47:18;7.90;99.90
4520;DHT22;2272;49.226;8.108;2023-04-08T01:49:45;7.90;99.90
4520;DHT22;2272;49.226;8.108;2023-04-08T01:52:14;7.90;99.90
4520;DHT22;2272;49.226;8.108;2023-04-08T01:54:41;7.90;99.90
4520;DHT22;2272;49.226;8.108;2023-04-08T01:57:11;7.90;99.90
4520;DHT22;2272;49.226;8.108;2023-04-08T01:59:41;7.90;99.90
4520;DHT22;2272;49.226;8.108;2023-04-08T02:02:09;7.90;99.90
4520;DHT22;2272;49.226;8.108;2023-04-08T02:04:37;7.90;99.90
4520;DHT22;2272;49.226;8.108;2023-04-08T02:07:04;7.90;99.90
4520;DHT22;2272;49.226;8.108;2023-04-08T02:09:31;7.90;99.90
4520;DHT22;2272;49.226;8.108;2023-04-08T02:11:58;7.90;99.90
4520;DHT22;2272;49.226;8.108;2023-04-08T02:14:26;7.90;99.90
4520;DHT22;2272;49.226;8.108;2023-04-08T02:16:57;7.90;99.90
4520;DHT22;2272;49.226;8.108;2023-04-08T02:19:30;7.90;99.90
4520;DHT22;2272;49.226;8.108;2023-04-08T02:22:01;7.90;99.90
4520;DHT22;2272;49.226;8.108;2023-04-08T02:24:31;7.90;99.90
4520;DHT22;2272;49.226;8.108;2023-04-08T02:26:59;7.90;99.90
4520;DHT22;2272;49.226;8.108;2023-04-08T02:29:29;7.90;99.90
4520;DHT22;2272;49.226;8.108;2023-04-08T02:31:57;7.90;99.90
4520;DHT22;2272;49.226;8.108;2023-04-08T02:34:24;7.90;99.90
4520;DHT22;2272;49.226;8.108;2023-04-08T02:36:53;7.80;99.90
4520;DHT22;2272;49.226;8.108;2023-04-08T02:39:19;7.90;99.90
4520;DHT22;2272;49.226;8.108;2023-04-08T02:41:46;7.80;99.90
4520;DHT22;2272;49.226;8.108;2023-04-08T02:44:13;7.80;99.90
4520;DHT22;2272;49.226;8.108;2023-04-08T02:46:39;7.80;99.90
4520;DHT22;2272;49.226;8.108;2023-04-08T02:49:06;7.70;99.90
4520;DHT22;2272;49.226;8.108;2023-04-08T02:51:33;7.70;99.90
4520;DHT22;2272;49.226;8.108;2023-04-08T02:54:01;7.70;99.90
4520;DHT22;2272;49.226;8.108;2023-04-08T02:56:27;7.70;99.90
4520;DHT22;2272;49.226;8.108;2023-04-08T02:58:54;7.70;99.90
4520;DHT22;2272;49.226;8.108;2023-04-08T03:01:21;7.70;99.90
4520;DHT22;2272;49.226;8.108;2023-04-08T03:03:48;7.70;99.90
4520;DHT22;2272;49.226;8.108;2023-04-08T03:06:14;7.80;99.90
4520;DHT22;2272;49.226;8.108;2023-04-08T03:08:41;7.80;99.90
4520;DHT22;2272;49.226;8.108;2023-04-08T03:11:09;7.80;99.90
4520;DHT22;2272;49.226;8.108;2023-04-08T03:13:36;7.80;99.90
4520;DHT22;2272;49.226;8.108;2023-04-08T03:16:03;7.80;99.90
4520;DHT22;2272;49.226;8.108;2023-04-08T03:18:29;7.80;99.90
4520;DHT22;2272;49.226;8.108;2023-04-08T03:20:56;7.80;99.90
4520;DHT22;2272;49.226;8.108;2023-04-08T03:23:23;7.80;99.90
4520;DHT22;2272;49.226;8.108;2023-04-08T03:25:50;7.80;99.90
4520;DHT22;2272;49.226;8.108;2023-04-08T03:28:18;7.80;99.90
4520;DHT22;2272;49.226;8.108;2023-04-08T03:30:45;7.80;99.90
4520;DHT22;2272;49.226;8.108;2023-04-08T03:33:11;7.80;99.90
4520;DHT22;2272;49.226;8.108;2023-04-08T03:35:38;7.80;99.90
4520;DHT22;2272;49.226;8.108;2023-04-08T03:38:05;7.70;99.90
4520;DHT22;2272;49.226;8.108;2023-04-08T03:40:32;7.70;99.90
4520;DHT22;2272;49.226;8.108;2023-04-08T03:42:58;7.70;99.90
4520;DHT22;2272;49.226;8.108;2023-04-08T03:45:27;7.60;99.90
4520;DHT22;2272;49.226;8.108;2023-04-08T03:47:54;7.60;99.90
4520;DHT22;2272;49.226;8.108;2023-04-08T03:50:20;7.50;99.90
4520;DHT22;2272;49.226;8.108;2023-04-08T03:52:47;7.50;99.90
4520;DHT22;2272;49.226;8.108;2023-04-08T03:55:14;7.50;99.90
4520;DHT22;2272;49.226;8.108;2023-04-08T03:57:42;7.50;99.90
4520;DHT22;2272;49.226;8.108;2023-04-08T04:00:10;7.50;99.90
4520;DHT22;2272;49.226;8.108;2023-04-08T04:02:39;7.50;99.90
4520;DHT22;2272;49.226;8.108;2023-04-08T04:05:06;7.50;99.90
4520;DHT22;2272;49.226;8.108;2023-04-08T04:07:33;7.40;99.90
4520;DHT22;2272;49.226;8.108;2023-04-08T04:10:00;7.40;99.90
4520;DHT22;2272;49.226;8.108;2023-04-08T04:12:26;7.40;99.90
4520;DHT22;2272;49.226;8.108;2023-04-08T04:14:53;7.40;99.90
4520;DHT22;2272;49.226;8.108;2023-04-08T04:17:20;7.40;99.90
4520;DHT22;2272;49.226;8.108;2023-04-08T04:19:48;7.40;99.90
4520;DHT22;2272;49.226;8.108;2023-04-08T04:22:15;7.40;99.90
4520;DHT22;2272;49.226;8.108;2023-04-08T04:24:46;7.40;99.90
4520;DHT22;2272;49.226;8.108;2023-04-08T04:27:12;7.30;99.90
4520;DHT22;2272;49.226;8.108;2023-04-08T04:29:39;7.30;99.90
4520;DHT22;2272;49.226;8.108;2023-04-08T04:32:06;7.30;99.90
4520;DHT22;2272;49.226;8.108;2023-04-08T04:34:33;7.30;99.90
4520;DHT22;2272;49.226;8.108;2023-04-08T04:37:01;7.30;99.90
4520;DHT22;2272;49.226;8.108;2023-04-08T04:39:28;7.30;99.90
4520;DHT22;2272;49.226;8.108;2023-04-08T04:41:55;7.30;99.90
4520;DHT22;2272;49.226;8.108;2023-04-08T04:44:21;7.30;99.90
4520;DHT22;2272;49.226;8.108;2023-04-08T04:46:48;7.30;99.90
4520;DHT22;2272;49.226;8.108;2023-04-08T04:49:15;7.30;99.90
4520;DHT22;2272;49.226;8.108;2023-04-08T04:51:42;7.30;99.90
4520;DHT22;2272;49.226;8.108;2023-04-08T04:54:10;7.30;99.90
4520;DHT22;2272;49.226;8.108;2023-04-08T04:56:37;7.30;99.90
4520;DHT22;2272;49.226;8.108;2023-04-08T04:59:03;7.30;99.90
4520;DHT22;2272;49.226;8.108;2023-04-08T05:01:31;7.30;99.90
4520;DHT22;2272;49.226;8.108;2023-04-08T05:03:57;7.30;99.90
4520;DHT22;2272;49.226;8.108;2023-04-08T05:06:24;7.20;99.90
4520;DHT22;2272;49.226;8.108;2023-04-08T05:08:52;7.30;99.90
4520;DHT22;2272;49.226;8.108;2023-04-08T05:11:20;7.30;99.90
4520;DHT22;2272;49.226;8.108;2023-04-08T05:13:47;7.30;99.90
4520;DHT22;2272;49.226;8.108;2023-04-08T05:16:14;7.30;99.90
4520;DHT22;2272;49.226;8.108;2023-04-08T05:18:41;7.30;99.90
4520;DHT22;2272;49.226;8.108;2023-04-08T05:21:07;7.40;99.90
4520;DHT22;2272;49.226;8.108;2023-04-08T05:23:34;7.40;99.90
4520;DHT22;2272;49.226;8.108;2023-04-08T05:26:01;7.40;99.90
4520;DHT22;2272;49.226;8.108;2023-04-08T05:28:29;7.50;99.90
4520;DHT22;2272;49.226;8.108;2023-04-08T05:30:56;7.50;99.90
4520;DHT22;2272;49.226;8.108;2023-04-08T05:33:22;7.60;99.90
4520;DHT22;2272;49.226;8.108;2023-04-08T05:35:50;7.60;99.90
4520;DHT22;2272;49.226;8.108;2023-04-08T05:38:18;7.70;99.90
4520;DHT22;2272;49.226;8.108;2023-04-08T05:40:44;7.70;99.90
4520;DHT22;2272;49.226;8.108;2023-04-08T05:43:11;7.80;99.90
4520;DHT22;2272;49.226;8.108;2023-04-08T05:45:39;7.80;99.90
4520;DHT22;2272;49.226;8.108;2023-04-08T05:48:06;7.90;99.90
4520;DHT22;2272;49.226;8.108;2023-04-08T05:50:34;8.00;99.90
4520;DHT22;2272;49.226;8.108;2023-04-08T05:53:02;8.00;99.90
4520;DHT22;2272;49.226;8.108;2023-04-08T05:55:29;8.10;99.90
4520;DHT22;2272;49.226;8.108;2023-04-08T05:57:55;8.20;99.90
4520;DHT22;2272;49.226;8.108;2023-04-08T06:00:22;8.20;99.90
4520;DHT22;2272;49.226;8.108;2023-04-08T06:02:50;8.30;99.90
4520;DHT22;2272;49.226;8.108;2023-04-08T06:05:17;8.40;99.90
4520;DHT22;2272;49.226;8.108;2023-04-08T06:07:44;8.40;99.90
4520;DHT22;2272;49.226;8.108;2023-04-08T06:10:11;8.50;99.90
4520;DHT22;2272;49.226;8.108;2023-04-08T06:12:37;8.60;99.90
4520;DHT22;2272;49.226;8.108;2023-04-08T06:15:05;8.70;99.90
4520;DHT22;2272;49.226;8.108;2023-04-08T06:17:32;8.70;99.90
4520;DHT22;2272;49.226;8.108;2023-04-08T06:20:03;8.80;99.90
4520;DHT22;2272;49.226;8.108;2023-04-08T06:22:30;8.80;99.90
4520;DHT22;2272;49.226;8.108;2023-04-08T06:24:56;9.00;99.90
4520;DHT22;2272;49.226;8.108;2023-04-08T06:27:23;9.10;99.90
4520;DHT22;2272;49.226;8.108;2023-04-08T06:29:50;9.20;99.90
4520;DHT22;2272;49.226;8.108;2023-04-08T06:32:18;9.30;99.90
4520;DHT22;2272;49.226;8.108;2023-04-08T06:34:44;9.40;99.90
4520;DHT22;2272;49.226;8.108;2023-04-08T06:37:13;9.40;99.90
4520;DHT22;2272;49.226;8.108;2023-04-08T06:39:40;9.50;99.90
4520;DHT22;2272;49.226;8.108;2023-04-08T06:42:06;9.50;99.90
4520;DHT22;2272;49.226;8.108;2023-04-08T06:44:33;9.50;99.90
4520;DHT22;2272;49.226;8.108;2023-04-08T06:47:00;9.60;99.90
4520;DHT22;2272;49.226;8.108;2023-04-08T06:49:27;9.60;99.90
4520;DHT22;2272;49.226;8.108;2023-04-08T06:51:54;9.60;99.90
4520;DHT22;2272;49.226;8.108;2023-04-08T06:54:22;9.60;99.90
4520;DHT22;2272;49.226;8.108;2023-04-08T06:56:49;9.70;99.90
4520;DHT22;2272;49.226;8.108;2023-04-08T06:59:16;9.70;99.90
4520;DHT22;2272;49.226;8.108;2023-04-08T07:01:43;9.80;99.90
4520;DHT22;2272;49.226;8.108;2023-04-08T07:04:10;9.90;99.90
4520;DHT22;2272;49.226;8.108;2023-04-08T07:06:36;9.90;99.90
4520;DHT22;2272;49.226;8.108;2023-04-08T07:09:04;9.90;99.90
4520;DHT22;2272;49.226;8.108;2023-04-08T07:11:32;10.00;99.90
4520;DHT22;2272;49.226;8.108;2023-04-08T07:13:59;10.20;99.90
4520;DHT22;2272;49.226;8.108;2023-04-08T07:16:26;10.40;99.90
4520;DHT22;2272;49.226;8.108;2023-04-08T07:18:53;10.60;99.90
4520;DHT22;2272;49.226;8.108;2023-04-08T07:21:20;10.70;99.90
4520;DHT22;2272;49.226;8.108;2023-04-08T07:23:46;10.70;99.90
4520;DHT22;2272;49.226;8.108;2023-04-08T07:26:13;10.80;99.90
4520;DHT22;2272;49.226;8.108;2023-04-08T07:28:43;10.80;99.90
4520;DHT22;2272;49.226;8.108;2023-04-08T07:31:11;10.90;99.90
4520;DHT22;2272;49.226;8.108;2023-04-08T07:33:38;11.00;99.90
4520;DHT22;2272;49.226;8.108;2023-04-08T07:36:05;11.10;99.90
4520;DHT22;2272;49.226;8.108;2023-04-08T07:38:32;11.20;99.90
4520;DHT22;2272;49.226;8.108;2023-04-08T07:40:58;11.20;99.90
4520;DHT22;2272;49.226;8.108;2023-04-08T07:43:25;11.20;99.90
4520;DHT22;2272;49.226;8.108;2023-04-08T07:45:59;11.20;99.90
4520;DHT22;2272;49.226;8.108;2023-04-08T07:48:27;11.30;99.90
4520;DHT22;2272;49.226;8.108;2023-04-08T07:50:53;11.30;99.90
4520;DHT22;2272;49.226;8.108;2023-04-08T07:53:20;11.30;99.90
4520;DHT22;2272;49.226;8.108;2023-04-08T07:55:47;11.50;99.90
4520;DHT22;2272;49.226;8.108;2023-04-08T07:58:13;11.40;99.90
4520;DHT22;2272;49.226;8.108;2023-04-08T08:00:40;11.30;99.90
4520;DHT22;2272;49.226;8.108;2023-04-08T08:03:09;11.10;99.90
4520;DHT22;2272;49.226;8.108;2023-04-08T08:05:36;11.10;99.90
4520;DHT22;2272;49.226;8.108;2023-04-08T08:08:03;11.20;99.90
4520;DHT22;2272;49.226;8.108;2023-04-08T08:10:32;11.20;99.90
4520;DHT22;2272;49.226;8.108;2023-04-08T08:12:58;11.10;99.90
4520;DHT22;2272;49.226;8.108;2023-04-08T08:15:42;11.10;99.90
4520;DHT22;2272;49.226;8.108;2023-04-08T08:18:10;11.00;99.90
4520;DHT22;2272;49.226;8.108;2023-04-08T08:20:37;10.80;99.90
4520;DHT22;2272;49.226;8.108;2023-04-08T08:23:04;10.80;99.90
4520;DHT22;2272;49.226;8.108;2023-04-08T08:25:30;10.80;99.90
4520;DHT22;2272;49.226;8.108;2023-04-08T08:27:57;11.10;99.90
4520;DHT22;2272;49.226;8.108;2023-04-08T08:30:24;11.30;99.90
4520;DHT22;2272;49.226;8.108;2023-04-08T08:32:50;11.40;99.90
4520;DHT22;2272;49.226;8.108;2023-04-08T08:35:19;11.40;99.90
4520;DHT22;2272;49.226;8.108;2023-04-08T08:37:45;11.60;99.90
4520;DHT22;2272;49.226;8.108;2023-04-08T08:40:13;11.70;99.90
4520;DHT22;2272;49.226;8.108;2023-04-08T08:42:39;12.00;99.90
4520;DHT22;2272;49.226;8.108;2023-04-08T08:45:08;12.20;99.90
4520;DHT22;2272;49.226;8.108;2023-04-08T08:47:36;12.30;99.90
4520;DHT22;2272;49.226;8.108;2023-04-08T08:50:03;12.40;99.90
4520;DHT22;2272;49.226;8.108;2023-04-08T08:52:31;12.50;99.90
4520;DHT22;2272;49.226;8.108;2023-04-08T08:54:58;12.60;99.90
4520;DHT22;2272;49.226;8.108;2023-04-08T08:57:25;12.70;99.90
4520;DHT22;2272;49.226;8.108;2023-04-08T08:59:52;12.70;99.90
4520;DHT22;2272;49.226;8.108;2023-04-08T09:02:23;12.80;99.90
4520;DHT22;2272;49.226;8.108;2023-04-08T09:05:01;12.90;99.90
4520;DHT22;2272;49.226;8.108;2023-04-08T09:07:29;13.10;99.90
4520;DHT22;2272;49.226;8.108;2023-04-08T09:09:58;13.30;99.90
4520;DHT22;2272;49.226;8.108;2023-04-08T09:12:25;13.70;99.90
4520;DHT22;2272;49.226;8.108;2023-04-08T09:15:02;13.80;99.90
4520;DHT22;2272;49.226;8.108;2023-04-08T09:17:33;13.90;99.90
4520;DHT22;2272;49.226;8.108;2023-04-08T09:20:05;13.80;99.90
4520;DHT22;2272;49.226;8.108;2023-04-08T09:22:34;13.60;99.90
4520;DHT22;2272;49.226;8.108;2023-04-08T09:25:25;13.40;99.90
4520;DHT22;2272;49.226;8.108;2023-04-08T09:27:52;13.30;99.90
4520;DHT22;2272;49.226;8.108;2023-04-08T09:30:21;13.20;99.90
4520;DHT22;2272;49.226;8.108;2023-04-08T09:32:48;13.20;99.90
4520;DHT22;2272;49.226;8.108;2023-04-08T09:35:17;13.40;99.90
4520;DHT22;2272;49.226;8.108;2023-04-08T09:37:44;13.80;99.90
4520;DHT22;2272;49.226;8.108;2023-04-08T09:40:11;14.10;99.90
4520;DHT22;2272;49.226;8.108;2023-04-08T09:42:44;14.50;99.90
4520;DHT22;2272;49.226;8.108;2023-04-08T09:45:13;14.60;99.90
4520;DHT22;2272;49.226;8.108;2023-04-08T09:47:46;14.90;99.90
4520;DHT22;2272;49.226;8.108;2023-04-08T09:50:18;15.40;99.90
4520;DHT22;2272;49.226;8.108;2023-04-08T09:52:46;15.60;99.90
4520;DHT22;2272;49.226;8.108;2023-04-08T09:55:21;15.50;99.90
4520;DHT22;2272;49.226;8.108;2023-04-08T09:57:57;15.40;99.90
4520;DHT22;2272;49.226;8.108;2023-04-08T10:00:29;15.20;99.90
4520;DHT22;2272;49.226;8.108;2023-04-08T10:03:04;15.10;99.90
4520;DHT22;2272;49.226;8.108;2023-04-08T10:05:36;15.50;99.90
4520;DHT22;2272;49.226;8.108;2023-04-08T10:08:04;15.80;99.90
4520;DHT22;2272;49.226;8.108;2023-04-08T10:10:32;16.10;99.90
4520;DHT22;2272;49.226;8.108;2023-04-08T10:13:01;15.90;99.90
4520;DHT22;2272;49.226;8.108;2023-04-08T10:15:29;15.80;99.90
4520;DHT22;2272;49.226;8.108;2023-04-08T10:18:29;15.90;99.90
4520;DHT22;2272;49.226;8.108;2023-04-08T10:20:56;16.10;99.90
4520;DHT22;2272;49.226;8.108;2023-04-08T10:23:52;16.50;99.90
4520;DHT22;2272;49.226;8.108;2023-04-08T10:26:31;16.50;99.90
4520;DHT22;2272;49.226;8.108;2023-04-08T10:32:27;16.10;99.90
4520;DHT22;2272;49.226;8.108;2023-04-08T10:34:54;15.80;99.90
4520;DHT22;2272;49.226;8.108;2023-04-08T10:37:21;15.60;99.90
4520;DHT22;2272;49.226;8.108;2023-04-08T10:39:48;15.50;99.90
4520;DHT22;2272;49.226;8.108;2023-04-08T10:42:16;15.50;99.90
4520;DHT22;2272;49.226;8.108;2023-04-08T10:44:44;15.50;99.90
4520;DHT22;2272;49.226;8.108;2023-04-08T10:47:13;15.20;99.90
4520;DHT22;2272;49.226;8.108;2023-04-08T10:49:39;14.80;99.90
4520;DHT22;2272;49.226;8.108;2023-04-08T10:52:07;14.70;99.90
4520;DHT22;2272;49.226;8.108;2023-04-08T10:54:35;14.70;99.90
4520;DHT22;2272;49.226;8.108;2023-04-08T10:57:03;14.50;99.90
4520;DHT22;2272;49.226;8.108;2023-04-08T10:59:31;14.20;99.90
4520;DHT22;2272;49.226;8.108;2023-04-08T11:01:58;14.10;99.90
4520;DHT22;2272;49.226;8.108;2023-04-08T11:04:28;14.10;99.90
4520;DHT22;2272;49.226;8.108;2023-04-08T11:06:55;14.20;99.90
4520;DHT22;2272;49.226;8.108;2023-04-08T11:09:22;14.30;99.90
4520;DHT22;2272;49.226;8.108;2023-04-08T11:11:49;14.20;99.90
4520;DHT22;2272;49.226;8.108;2023-04-08T11:14:18;14.20;99.90
4520;DHT22;2272;49.226;8.108;2023-04-08T11:16:46;14.20;99.90
4520;DHT22;2272;49.226;8.108;2023-04-08T11:19:13;14.30;99.90
4520;DHT22;2272;49.226;8.108;2023-04-08T11:21:42;14.50;99.90
4520;DHT22;2272;49.226;8.108;2023-04-08T11:24:09;14.40;99.90
4520;DHT22;2272;49.226;8.108;2023-04-08T11:29:34;14.10;99.90
4520;DHT22;2272;49.226;8.108;2023-04-08T11:32:01;13.70;99.90
4520;DHT22;2272;49.226;8.108;2023-04-08T11:34:28;13.60;99.90
4520;DHT22;2272;49.226;8.108;2023-04-08T11:36:56;13.50;99.90
4520;DHT22;2272;49.226;8.108;2023-04-08T11:39:26;13.30;99.90
4520;DHT22;2272;49.226;8.108;2023-04-08T11:41:53;13.30;99.90
4520;DHT22;2272;49.226;8.108;2023-04-08T11:44:29;13.10;99.90
4520;DHT22;2272;49.226;8.108;2023-04-08T11:46:56;13.00;99.90
4520;DHT22;2272;49.226;8.108;2023-04-08T11:49:27;13.00;99.90
4520;DHT22;2272;49.226;8.108;2023-04-08T11:51:55;13.20;99.90
4520;DHT22;2272;49.226;8.108;2023-04-08T11:54:27;13.40;99.90
4520;DHT22;2272;49.226;8.108;2023-04-08T11:56:54;13.50;99.90
4520;DHT22;2272;49.226;8.108;2023-04-08T11:59:22;13.40;99.90
4520;DHT22;2272;49.226;8.108;2023-04-08T12:01:50;13.50;99.90
4520;DHT22;2272;49.226;8.108;2023-04-08T12:04:17;13.40;99.90
4520;DHT22;2272;49.226;8.108;2023-04-08T12:06:44;13.50;99.90
4520;DHT22;2272;49.226;8.108;2023-04-08T12:09:11;13.60;99.90
4520;DHT22;2272;49.226;8.108;2023-04-08T12:11:39;13.90;99.90
4520;DHT22;2272;49.226;8.108;2023-04-08T12:14:06;14.20;99.90
4520;DHT22;2272;49.226;8.108;2023-04-08T12:16:33;14.30;99.90
4520;DHT22;2272;49.226;8.108;2023-04-08T12:18:59;14.40;99.90
4520;DHT22;2272;49.226;8.108;2023-04-08T12:21:26;14.70;99.90
4520;DHT22;2272;49.226;8.108;2023-04-08T12:23:53;15.00;99.90
4520;DHT22;2272;49.226;8.108;2023-04-08T12:26:20;15.30;99.90
4520;DHT22;2272;49.226;8.108;2023-04-08T12:28:48;15.40;99.90
4520;DHT22;2272;49.226;8.108;2023-04-08T12:31:14;15.30;99.90
4520;DHT22;2272;49.226;8.108;2023-04-08T12:33:42;15.30;99.90
4520;DHT22;2272;49.226;8.108;2023-04-08T12:36:09;15.30;99.90
4520;DHT22;2272;49.226;8.108;2023-04-08T12:38:36;15.20;99.90
4520;DHT22;2272;49.226;8.108;2023-04-08T12:41:03;15.10;99.90
4520;DHT22;2272;49.226;8.108;2023-04-08T12:43:29;15.00;99.90
4520;DHT22;2272;49.226;8.108;2023-04-08T12:45:58;15.10;99.90
4520;DHT22;2272;49.226;8.108;2023-04-08T12:48:26;14.90;99.90
4520;DHT22;2272;49.226;8.108;2023-04-08T12:50:52;14.80;99.90
4520;DHT22;2272;49.226;8.108;2023-04-08T12:53:19;14.90;99.90
4520;DHT22;2272;49.226;8.108;2023-04-08T12:55:46;14.90;99.90
4520;DHT22;2272;49.226;8.108;2023-04-08T12:58:13;14.80;99.90
4520;DHT22;2272;49.226;8.108;2023-04-08T13:00:41;14.80;99.90
4520;DHT22;2272;49.226;8.108;2023-04-08T13:03:15;14.90;99.90
4520;DHT22;2272;49.226;8.108;2023-04-08T13:05:42;15.00;99.90
4520;DHT22;2272;49.226;8.108;2023-04-08T13:08:09;15.00;99.90
4520;DHT22;2272;49.226;8.108;2023-04-08T13:10:36;15.30;99.90
4520;DHT22;2272;49.226;8.108;2023-04-08T13:13:02;15.60;99.90
4520;DHT22;2272;49.226;8.108;2023-04-08T13:15:29;15.70;99.90
4520;DHT22;2272;49.226;8.108;2023-04-08T13:17:56;15.50;99.90
4520;DHT22;2272;49.226;8.108;2023-04-08T13:20:25;15.40;99.90
4520;DHT22;2272;49.226;8.108;2023-04-08T13:22:52;15.30;99.90
4520;DHT22;2272;49.226;8.108;2023-04-08T13:25:19;15.10;99.90
4520;DHT22;2272;49.226;8.108;2023-04-08T13:27:46;14.90;99.90
4520;DHT22;2272;49.226;8.108;2023-04-08T13:30:13;14.70;99.90
4520;DHT22;2272;49.226;8.108;2023-04-08T13:32:39;14.50;99.90
4520;DHT22;2272;49.226;8.108;2023-04-08T13:35:07;14.40;99.90
4520;DHT22;2272;49.226;8.108;2023-04-08T13:37:35;14.30;99.90
4520;DHT22;2272;49.226;8.108;2023-04-08T13:40:02;14.10;99.90
4520;DHT22;2272;49.226;8.108;2023-04-08T13:42:30;14.10;99.90
4520;DHT22;2272;49.226;8.108;2023-04-08T13:44:57;14.10;99.90
4520;DHT22;2272;49.226;8.108;2023-04-08T13:47:24;14.10;99.90
4520;DHT22;2272;49.226;8.108;2023-04-08T13:49:52;14.00;99.90
4520;DHT22;2272;49.226;8.108;2023-04-08T13:52:19;14.00;99.90
4520;DHT22;2272;49.226;8.108;2023-04-08T13:54:47;14.00;99.90
4520;DHT22;2272;49.226;8.108;2023-04-08T13:57:13;14.00;99.90
4520;DHT22;2272;49.226;8.108;2023-04-08T13:59:40;14.00;99.90
4520;DHT22;2272;49.226;8.108;2023-04-08T14:02:07;14.20;99.90
4520;DHT22;2272;49.226;8.108;2023-04-08T14:04:33;14.40;99.90
4520;DHT22;2272;49.226;8.108;2023-04-08T14:07:01;14.30;99.90
4520;DHT22;2272;49.226;8.108;2023-04-08T14:09:27;14.30;99.90
4520;DHT22;2272;49.226;8.108;2023-04-08T14:11:55;14.20;99.90
4520;DHT22;2272;49.226;8.108;2023-04-08T14:14:23;14.20;99.90
4520;DHT22;2272;49.226;8.108;2023-04-08T14:16:50;14.10;99.90
4520;DHT22;2272;49.226;8.108;2023-04-08T14:19:16;14.30;99.90
4520;DHT22;2272;49.226;8.108;2023-04-08T14:21:43;14.50;99.90
4520;DHT22;2272;49.226;8.108;2023-04-08T14:24:10;14.80;99.90
4520;DHT22;2272;49.226;8.108;2023-04-08T14:26:36;14.80;99.90
4520;DHT22;2272;49.226;8.108;2023-04-08T14:29:05;14.70;99.90
4520;DHT22;2272;49.226;8.108;2023-04-08T14:31:33;14.80;99.90
4520;DHT22;2272;49.226;8.108;2023-04-08T14:34:01;14.90;99.90
4520;DHT22;2272;49.226;8.108;2023-04-08T14:36:27;15.20;99.90
4520;DHT22;2272;49.226;8.108;2023-04-08T14:38:55;15.20;99.90
4520;DHT22;2272;49.226;8.108;2023-04-08T14:41:22;15.20;99.90
4520;DHT22;2272;49.226;8.108;2023-04-08T14:43:50;15.10;99.90
4520;DHT22;2272;49.226;8.108;2023-04-08T14:46:18;15.20;99.90
4520;DHT22;2272;49.226;8.108;2023-04-08T14:48:46;15.40;99.90
4520;DHT22;2272;49.226;8.108;2023-04-08T14:51:12;15.50;99.90
4520;DHT22;2272;49.226;8.108;2023-04-08T14:53:39;15.50;99.90
4520;DHT22;2272;49.226;8.108;2023-04-08T14:56:07;15.40;99.90
4520;DHT22;2272;49.226;8.108;2023-04-08T14:58:34;15.20;99.90
4520;DHT22;2272;49.226;8.108;2023-04-08T15:01:00;15.00;99.90
4520;DHT22;2272;49.226;8.108;2023-04-08T15:03:28;14.70;99.90
4520;DHT22;2272;49.226;8.108;2023-04-08T15:05:55;14.40;99.90
4520;DHT22;2272;49.226;8.108;2023-04-08T15:08:22;14.20;99.90
4520;DHT22;2272;49.226;8.108;2023-04-08T15:10:49;14.00;99.90
4520;DHT22;2272;49.226;8.108;2023-04-08T15:13:16;13.80;99.90
4520;DHT22;2272;49.226;8.108;2023-04-08T15:15:42;13.60;99.90
4520;DHT22;2272;49.226;8.108;2023-04-08T15:18:09;13.60;99.90
4520;DHT22;2272;49.226;8.108;2023-04-08T15:20:37;13.60;99.90
4520;DHT22;2272;49.226;8.108;2023-04-08T15:23:04;13.50;99.90
4520;DHT22;2272;49.226;8.108;2023-04-08T15:25:32;13.50;99.90
4520;DHT22;2272;49.226;8.108;2023-04-08T15:27:58;13.40;99.90
4520;DHT22;2272;49.226;8.108;2023-04-08T15:30:26;13.20;99.90
4520;DHT22;2272;49.226;8.108;2023-04-08T15:32:59;13.10;99.90
4520;DHT22;2272;49.226;8.108;2023-04-08T15:35:26;12.90;99.90
4520;DHT22;2272;49.226;8.108;2023-04-08T15:37:54;12.70;99.90
4520;DHT22;2272;49.226;8.108;2023-04-08T15:40:21;12.50;99.90
4520;DHT22;2272;49.226;8.108;2023-04-08T15:42:47;12.40;99.90
4520;DHT22;2272;49.226;8.108;2023-04-08T15:45:14;12.30;99.90
4520;DHT22;2272;49.226;8.108;2023-04-08T15:47:41;12.30;99.90
4520;DHT22;2272;49.226;8.108;2023-04-08T15:50:08;12.20;99.90
4520;DHT22;2272;49.226;8.108;2023-04-08T15:52:35;12.20;99.90
4520;DHT22;2272;49.226;8.108;2023-04-08T15:55:04;12.20;99.90
4520;DHT22;2272;49.226;8.108;2023-04-08T15:57:31;12.30;99.90
4520;DHT22;2272;49.226;8.108;2023-04-08T16:00:00;12.30;99.90
4520;DHT22;2272;49.226;8.108;2023-04-08T16:02:28;12.30;99.90
4520;DHT22;2272;49.226;8.108;2023-04-08T16:04:54;12.30;99.90
4520;DHT22;2272;49.226;8.108;2023-04-08T16:07:21;12.10;99.90
4520;DHT22;2272;49.226;8.108;2023-04-08T16:09:47;12.00;99.90
4520;DHT22;2272;49.226;8.108;2023-04-08T16:12:16;11.90;99.90
4520;DHT22;2272;49.226;8.108;2023-04-08T16:14:43;11.80;99.90
4520;DHT22;2272;49.226;8.108;2023-04-08T16:17:11;11.70;99.90
4520;DHT22;2272;49.226;8.108;2023-04-08T16:19:38;11.60;99.90